Notre-Dame-de-la-Salette, Canada
Current Conditions -  °F | °C
As of 9:00 PM on Tuesday 21 Oct 2014 (Local Time) from CYND Reporting Station
Overcast Overcast  
Wind Chill: 44°   Ceiling: 4500
Heat Index: 46°   Visibility: 15mi
Dew Point: 32°   Wind: 5mph
Humidity: 57%   Direction: 30°NNE
Pressure: 30.16"   Gusts: NA
Location:  45.76°N, 75.58°W
Report Text: CYND 220100Z 03004KT 010V070 15SM SCT028 OVC045 08/M00 A3016 RMK SC3SC5 LAST OBS/NEXT 221100 UTC SLP214
Loading
Personal Weather Stations






























Interactive Weather Map
Tropical Storm Tracking
New forecast layout! Learn more

10-Day Weather Forecast

Advertisements
Track Severe Weather on mobile